Time;durP1;ratioP1;P1;durP2;ratioP2;P2;SDS_P1;SDS_P2;PMS_P1;PMS_P2;Temp;Humidity;BMP_temperature;BMP_pressure;BME280_temperature;BME280_humidity;BME280_pressure;Samples;Min_cycle;Max_cycle;Signal;HPM_P1;HPM_P2
2021/09/05 00:02:20;;;;;;;14.15;8.07;;;;;;;12.81;52.96;102168.59;5031989;28;20434;-67
2021/09/05 00:04:46;;;;;;;20.05;7.20;;;;;;;12.75;53.28;102173.16;5033598;28;20035;-67
2021/09/05 00:07:11;;;;;;;16.73;8.00;;;;;;;12.75;53.07;102174.00;5029618;28;20029;-68
2021/09/05 00:09:37;;;;;;;20.70;8.35;;;;;;;12.76;52.86;102178.38;5033809;28;20025;-67
2021/09/05 00:12:03;;;;;;;16.48;7.47;;;;;;;12.74;53.09;102177.56;5017002;28;20045;-68
2021/09/05 00:14:29;;;;;;;14.07;7.63;;;;;;;12.71;53.00;102177.63;5033279;28;20086;-68
2021/09/05 00:16:55;;;;;;;16.08;6.93;;;;;;;12.65;53.03;102173.38;5031643;28;20038;-68
2021/09/05 00:19:20;;;;;;;17.05;7.63;;;;;;;12.64;53.25;102176.91;5030494;28;20463;-68
2021/09/05 00:21:46;;;;;;;13.27;6.75;;;;;;;12.68;53.19;102181.16;5036276;28;20493;-67
2021/09/05 00:24:11;;;;;;;17.42;6.65;;;;;;;12.64;53.01;102171.66;5030424;28;20497;-68
2021/09/05 00:26:37;;;;;;;16.30;6.85;;;;;;;12.60;53.58;102180.53;5042542;28;20080;-68
2021/09/05 00:29:03;;;;;;;15.95;7.13;;;;;;;12.63;53.37;102179.59;5035075;28;20116;-68
2021/09/05 00:31:28;;;;;;;19.00;8.40;;;;;;;12.56;53.64;102178.00;5022290;28;20041;-68
2021/09/05 00:33:58;;;;;;;17.00;6.97;;;;;;;12.53;53.91;102173.72;5034277;28;20366;-68
2021/09/05 00:36:24;;;;;;;15.07;6.57;;;;;;;12.60;53.53;102177.91;5034509;28;20534;-68
2021/09/05 00:38:50;;;;;;;14.57;7.82;;;;;;;12.54;53.28;102172.84;5036584;28;20044;-67
2021/09/05 00:41:16;;;;;;;12.45;6.88;;;;;;;12.49;53.76;102185.19;5017037;28;20041;-68
2021/09/05 00:44:02;;;;;;;13.20;6.82;;;;;;;12.45;53.91;102175.72;5034772;28;20029;-67
2021/09/05 00:46:28;;;;;;;19.23;7.85;;;;;;;12.44;53.84;102179.22;5025926;28;20040;-68
2021/09/05 00:48:53;;;;;;;11.45;6.05;;;;;;;12.46;53.87;102177.41;5042335;28;20029;-68
2021/09/05 00:51:22;;;;;;;18.13;7.15;;;;;;;12.45;54.00;102180.94;5023158;28;20095;-68
2021/09/05 00:53:48;;;;;;;16.05;7.47;;;;;;;12.46;53.58;102187.91;5043667;28;20708;-67
2021/09/05 00:56:14;;;;;;;14.68;6.10;;;;;;;12.42;53.71;102181.03;5032734;28;20084;-68
2021/09/05 00:58:41;;;;;;;15.40;6.68;;;;;;;12.35;53.58;102175.06;5035367;28;20041;-67
2021/09/05 01:01:11;;;;;;;13.90;6.63;;;;;;;12.35;53.61;102184.72;5023633;28;20029;-67
2021/09/05 01:03:37;;;;;;;18.40;7.53;;;;;;;12.27;53.92;102184.94;5018562;28;20407;-67
2021/09/05 01:06:03;;;;;;;13.15;6.45;;;;;;;12.20;54.07;102180.72;5033591;28;20116;-67
2021/09/05 01:08:29;;;;;;;16.92;6.50;;;;;;;12.25;54.21;102184.09;5035365;28;20036;-67
2021/09/05 01:10:55;;;;;;;21.02;6.90;;;;;;;12.24;53.98;102188.47;5037526;28;20025;-68
2021/09/05 01:13:22;;;;;;;16.33;6.47;;;;;;;12.21;54.23;102185.94;5032319;28;20068;-67
2021/09/05 01:15:49;;;;;;;16.00;6.47;;;;;;;12.19;54.31;102195.59;5017371;28;20037;-66
2021/09/05 01:18:22;;;;;;;18.40;7.15;;;;;;;12.16;54.29;102179.97;5035537;28;20491;-67
2021/09/05 01:21:06;;;;;;;14.38;6.80;;;;;;;12.14;54.43;102188.78;5033363;28;20059;-69
2021/09/05 01:23:50;;;;;;;15.63;7.68;;;;;;;12.15;54.37;102188.72;5034581;28;20215;-67
2021/09/05 01:26:42;;;;;;;13.35;6.68;;;;;;;12.15;54.75;102193.94;5035862;28;20041;-68
2021/09/05 01:29:46;;;;;;;17.60;6.93;;;;;;;12.14;54.54;102188.78;5036295;28;20469;-68
2021/09/05 01:32:38;;;;;;;17.98;8.20;;;;;;;12.23;53.99;102194.63;5040545;28;20697;-68
2021/09/05 01:35:24;;;;;;;15.60;7.25;;;;;;;12.17;54.31;102192.16;5034927;28;20045;-68
2021/09/05 01:38:15;;;;;;;16.45;7.25;;;;;;;12.10;54.68;102200.22;5022024;28;20375;-68
2021/09/05 01:41:10;;;;;;;15.15;7.65;;;;;;;12.08;54.50;102201.09;5033530;28;20041;-69
2021/09/05 01:44:08;;;;;;;15.07;7.35;;;;;;;12.04;54.67;102202.09;5040342;28;20051;-69
2021/09/05 01:46:53;;;;;;;15.30;7.30;;;;;;;12.06;54.58;102202.06;5032748;28;20415;-69
2021/09/05 01:49:37;;;;;;;18.17;7.35;;;;;;;12.10;54.55;102200.22;5033248;28;20940;-69
2021/09/05 01:52:22;;;;;;;16.63;8.02;;;;;;;11.92;54.69;102209.41;5032705;28;20033;-69
2021/09/05 01:55:13;;;;;;;16.23;7.13;;;;;;;12.02;54.83;102210.88;5035119;28;20037;-69
2021/09/05 01:58:05;;;;;;;22.25;8.40;;;;;;;11.95;55.01;102211.94;5032796;28;20124;-68
2021/09/05 02:00:50;;;;;;;16.08;8.27;;;;;;;11.92;55.06;102214.66;5038862;28;20045;-69
2021/09/05 02:03:29;;;;;;;17.95;8.82;;;;;;;11.95;55.10;102218.03;5033266;28;20120;-68
2021/09/05 02:06:32;;;;;;;16.70;7.40;;;;;;;11.96;54.80;102217.16;5035086;28;20033;-68
2021/09/05 02:09:17;;;;;;;17.77;8.57;;;;;;;11.93;54.72;102218.97;5029539;28;20065;-68
2021/09/05 02:12:04;;;;;;;19.25;8.48;;;;;;;11.91;55.10;102226.00;5036655;28;20037;-67
2021/09/05 02:14:48;;;;;;;13.90;6.72;;;;;;;11.88;54.79;102232.19;5034040;28;20106;-69
2021/09/05 02:17:32;;;;;;;14.57;6.95;;;;;;;11.83;54.87;102240.16;5034064;28;20051;-68
2021/09/05 02:20:12;;;;;;;16.63;7.63;;;;;;;11.67;54.96;102217.81;5021327;28;20116;-68
2021/09/05 02:22:56;;;;;;;20.55;8.40;;;;;;;11.61;55.49;102228.44;5034616;28;20048;-68
2021/09/05 02:25:40;;;;;;;15.98;7.65;;;;;;;11.74;55.24;102234.25;5033008;28;20052;-68
2021/09/05 02:28:43;;;;;;;14.55;7.68;;;;;;;11.77;54.94;102237.66;5019173;28;20751;-69
2021/09/05 02:31:27;;;;;;;19.52;9.25;;;;;;;11.67;55.23;102236.16;5033282;28;20572;-68
2021/09/05 02:34:13;;;;;;;20.38;9.02;;;;;;;11.64;55.00;102230.97;5020145;28;20064;-68
2021/09/05 02:36:58;;;;;;;20.52;8.73;;;;;;;11.67;55.03;102229.16;5035201;28;20425;-69
2021/09/05 02:39:47;;;;;;;14.88;7.95;;;;;;;11.65;55.08;102235.31;5024761;28;20112;-69
2021/09/05 02:42:38;;;;;;;18.90;8.82;;;;;;;11.64;55.60;102234.47;5034962;28;20468;-68
2021/09/05 02:45:22;;;;;;;22.10;9.43;;;;;;;11.63;55.66;102239.72;5033736;28;20163;-69
2021/09/05 02:48:11;;;;;;;21.05;9.68;;;;;;;11.62;55.62;102238.00;5032985;28;20041;-69
2021/09/05 02:50:57;;;;;;;16.40;8.00;;;;;;;11.63;55.75;102231.88;5028631;28;20037;-69
2021/09/05 02:53:22;;;;;;;21.15;8.88;;;;;;;11.69;55.54;102231.75;5034959;28;20048;-69
2021/09/05 02:56:14;;;;;;;17.00;8.55;;;;;;;11.69;55.43;102226.50;5033816;28;20067;-69
2021/09/05 02:58:58;;;;;;;16.30;8.70;;;;;;;11.75;55.49;102231.56;5031767;28;20041;-68
2021/09/05 03:01:46;;;;;;;22.17;10.85;;;;;;;11.69;55.99;102231.75;5019608;28;20064;-68
2021/09/05 03:04:30;;;;;;;22.40;9.38;;;;;;;11.78;55.91;102236.78;5032200;28;20525;-69
2021/09/05 03:07:16;;;;;;;21.05;9.68;;;;;;;11.74;56.20;102229.88;5031508;28;20056;-69
2021/09/05 03:10:13;;;;;;;24.63;10.02;;;;;;;11.71;56.18;102239.53;5033659;28;20045;-69
2021/09/05 03:13:14;;;;;;;25.15;9.32;;;;;;;11.75;56.08;102235.97;5030471;28;20068;-69
2021/09/05 03:15:46;;;;;;;21.77;10.57;;;;;;;11.68;56.38;102232.63;5032561;28;20574;-69
2021/09/05 03:18:31;;;;;;;21.30;8.85;;;;;;;11.78;56.13;102231.56;5032643;28;20117;-69
2021/09/05 03:21:25;;;;;;;24.08;10.35;;;;;;;11.64;56.21;102231.84;5020558;28;20044;-69
2021/09/05 03:24:09;;;;;;;19.45;9.70;;;;;;;11.71;56.21;102232.56;5029908;28;20130;-68
2021/09/05 03:27:01;;;;;;;22.92;10.43;;;;;;;11.66;56.01;102230.06;5030493;28;20037;-68
2021/09/05 03:29:52;;;;;;;21.17;9.38;;;;;;;11.59;56.11;102238.06;5032158;28;20041;-68
2021/09/05 03:32:38;;;;;;;20.58;9.63;;;;;;;11.61;56.28;102238.91;5029540;28;20045;-68
2021/09/05 03:35:29;;;;;;;27.67;10.20;;;;;;;11.57;56.25;102235.47;5032644;28;20037;-68
2021/09/05 03:38:27;;;;;;;24.73;10.57;;;;;;;11.54;56.65;102242.56;5035190;28;20040;-68
2021/09/05 03:41:11;;;;;;;17.25;9.63;;;;;;;11.55;56.21;102245.13;5032128;28;20098;-68
2021/09/05 03:44:03;;;;;;;16.80;8.80;;;;;;;11.54;56.48;102248.66;5031619;28;20037;-69
2021/09/05 03:46:47;;;;;;;19.20;8.70;;;;;;;11.44;56.33;102241.88;5032297;28;20099;-68
2021/09/05 03:49:32;;;;;;;22.92;9.30;;;;;;;11.52;56.17;102239.97;5030492;28;20124;-68
2021/09/05 03:51:59;;;;;;;23.20;9.82;;;;;;;11.41;56.46;102237.56;5034620;28;20054;-67
2021/09/05 03:54:26;;;;;;;21.48;9.98;;;;;;;11.46;56.28;102240.97;5036622;28;20039;-69
2021/09/05 03:56:53;;;;;;;19.58;9.05;;;;;;;11.46;56.02;102235.75;5018960;28;20199;-67
2021/09/05 03:59:18;;;;;;;23.17;9.43;;;;;;;11.48;56.21;102247.91;5030694;28;20485;-67
2021/09/05 04:01:44;;;;;;;19.52;9.05;;;;;;;11.43;56.20;102243.66;5037691;28;20435;-68
2021/09/05 04:04:16;;;;;;;20.55;9.50;;;;;;;11.43;56.35;102246.25;5021003;28;20444;-68
2021/09/05 04:06:44;;;;;;;19.05;9.00;;;;;;;11.48;56.26;102242.69;5034080;28;20029;-68
2021/09/05 04:09:17;;;;;;;20.02;9.25;;;;;;;11.28;56.78;102245.72;5024683;28;20613;-68
2021/09/05 04:11:43;;;;;;;19.60;9.95;;;;;;;11.45;56.30;102248.84;5036880;28;20525;-67
2021/09/05 04:14:09;;;;;;;24.58;10.95;;;;;;;11.44;56.38;102252.34;5048048;28;20037;-68
2021/09/05 04:16:34;;;;;;;25.75;10.13;;;;;;;11.39;56.25;102249.84;5037056;28;20033;-68
2021/09/05 04:19:00;;;;;;;24.20;9.95;;;;;;;11.37;56.22;102245.53;5036567;28;20029;-69
2021/09/05 04:21:26;;;;;;;19.92;9.10;;;;;;;11.30;56.49;102244.81;5018917;28;20055;-68
2021/09/05 04:23:52;;;;;;;17.80;8.63;;;;;;;11.31;56.34;102246.53;5036319;28;20037;-68
2021/09/05 04:26:17;;;;;;;25.65;9.55;;;;;;;11.34;56.18;102250.84;5035834;28;20056;-68
2021/09/05 04:28:43;;;;;;;24.08;10.13;;;;;;;11.30;56.42;102252.66;5037304;28;20037;-67
2021/09/05 04:31:08;;;;;;;23.98;9.73;;;;;;;11.26;56.25;102258.84;5024183;28;20032;-67
2021/09/05 04:33:34;;;;;;;20.13;9.38;;;;;;;11.28;56.50;102259.66;5034287;28;20033;-68
2021/09/05 04:35:59;;;;;;;23.83;10.68;;;;;;;11.12;56.62;102260.88;5038867;28;20632;-67
2021/09/05 04:38:25;;;;;;;20.38;9.65;;;;;;;11.33;56.19;102260.47;5036501;28;20036;-69
2021/09/05 04:40:50;;;;;;;17.83;8.38;;;;;;;11.33;56.12;102255.22;5023446;28;20036;-67
2021/09/05 04:43:17;;;;;;;16.60;8.05;;;;;;;11.34;55.78;102256.94;5035123;28;20029;-67
2021/09/05 04:45:42;;;;;;;19.02;8.25;;;;;;;11.28;56.23;102257.06;5035683;28;20052;-68
2021/09/05 04:48:08;;;;;;;20.40;8.82;;;;;;;11.32;56.34;102261.34;5033400;28;20021;-68
2021/09/05 04:50:33;;;;;;;25.90;8.95;;;;;;;11.24;56.35;102260.63;5033847;28;20489;-67
2021/09/05 04:52:58;;;;;;;25.27;9.30;;;;;;;11.30;56.13;102260.50;5035791;28;20111;-68
2021/09/05 04:55:24;;;;;;;23.58;9.02;;;;;;;11.36;55.93;102267.38;5037347;28;20892;-67
2021/09/05 04:57:50;;;;;;;16.42;8.20;;;;;;;11.33;56.24;102265.69;5038437;28;20052;-68
2021/09/05 05:00:16;;;;;;;21.83;9.60;;;;;;;11.31;56.39;102267.47;5034944;28;20033;-68
2021/09/05 05:02:41;;;;;;;21.67;9.38;;;;;;;11.37;56.35;102275.19;5037460;28;20426;-69
2021/09/05 05:05:07;;;;;;;22.95;8.60;;;;;;;11.45;55.99;102275.88;5024121;28;20032;-67
2021/09/05 05:07:33;;;;;;;19.50;8.65;;;;;;;11.33;56.11;102270.03;5024448;28;20037;-68
2021/09/05 05:09:58;;;;;;;17.73;8.75;;;;;;;11.44;55.82;102282.03;5027275;28;20040;-67
2021/09/05 05:12:24;;;;;;;19.08;8.30;;;;;;;11.56;55.97;102282.66;5034590;28;20065;-67
2021/09/05 05:14:49;;;;;;;17.20;9.40;;;;;;;11.61;55.71;102286.03;5038240;28;20517;-69
2021/09/05 05:17:15;;;;;;;17.63;7.97;;;;;;;11.68;55.50;102288.47;5021412;28;20032;-68
2021/09/05 05:19:40;;;;;;;17.50;7.65;;;;;;;11.63;55.70;102290.34;5033618;28;20088;-68
2021/09/05 05:22:06;;;;;;;20.02;7.72;;;;;;;11.77;55.47;102292.69;5042153;28;20127;-68
2021/09/05 05:24:31;;;;;;;16.50;7.45;;;;;;;11.77;55.00;102292.69;5037061;28;20037;-68
2021/09/05 05:26:57;;;;;;;17.63;8.25;;;;;;;11.92;55.13;102290.63;5034910;28;20390;-68
2021/09/05 05:29:23;;;;;;;21.55;7.95;;;;;;;11.96;54.53;102287.03;5042413;28;20033;-68
2021/09/05 05:31:48;;;;;;;20.70;7.75;;;;;;;11.92;54.74;102293.25;5020480;28;20029;-68
2021/09/05 05:34:14;;;;;;;13.38;7.38;;;;;;;12.01;54.42;102290.41;5030446;28;20470;-68
2021/09/05 05:36:39;;;;;;;18.42;8.98;;;;;;;12.04;54.13;102290.31;5035874;28;20092;-68
2021/09/05 05:39:05;;;;;;;17.08;7.60;;;;;;;12.35;53.55;102298.31;5034140;28;20044;-68
2021/09/05 05:41:30;;;;;;;22.50;8.02;;;;;;;13.13;52.24;102291.94;5035070;28;20383;-68
2021/09/05 05:43:56;;;;;;;16.52;7.13;;;;;;;13.44;51.42;102295.38;5036221;28;20075;-68
2021/09/05 05:46:21;;;;;;;13.98;7.55;;;;;;;13.72;51.36;102297.22;5035395;28;20049;-68
2021/09/05 05:48:47;;;;;;;14.30;7.63;;;;;;;14.00;49.87;102299.84;5038135;28;20515;-67
2021/09/05 05:51:12;;;;;;;12.18;6.45;;;;;;;15.20;47.67;102294.91;5033825;28;20116;-67
2021/09/05 05:53:38;;;;;;;15.68;6.40;;;;;;;16.33;43.61;102293.13;5036507;28;20030;-68
2021/09/05 05:56:04;;;;;;;10.00;6.07;;;;;;;17.68;42.55;102293.31;5037989;28;20548;-68
2021/09/05 05:58:30;;;;;;;12.80;5.65;;;;;;;18.79;39.00;102286.03;5033496;28;20152;-67
2021/09/05 06:00:56;;;;;;;13.00;5.60;;;;;;;19.39;37.60;102283.66;5020910;28;20032;-67
2021/09/05 06:03:21;;;;;;;14.55;5.55;;;;;;;19.85;35.49;102290.84;5034196;28;20033;-68
2021/09/05 06:05:47;;;;;;;11.52;4.85;;;;;;;20.52;33.97;102286.91;5038123;28;20197;-68
2021/09/05 06:08:14;;;;;;;7.97;4.32;;;;;;;21.09;33.57;102287.94;5032738;28;20046;-68
2021/09/05 06:10:42;;;;;;;11.93;5.53;;;;;;;21.72;30.42;102287.44;5030951;28;20124;-69
2021/09/05 06:13:07;;;;;;;10.65;4.72;;;;;;;21.22;32.87;102286.22;5022332;28;20033;-69
2021/09/05 06:15:33;;;;;;;8.75;4.82;;;;;;;21.25;30.64;102290.47;5034773;28;20041;-68
2021/09/05 06:17:58;;;;;;;12.60;4.97;;;;;;;20.94;32.00;102295.91;5032788;28;20140;-68
2021/09/05 06:20:24;;;;;;;8.55;4.63;;;;;;;21.26;32.73;102295.69;5030520;28;20037;-68
2021/09/05 06:22:50;;;;;;;15.43;5.85;;;;;;;21.26;31.90;102295.69;5032484;28;20067;-68
2021/09/05 06:25:16;;;;;;;9.93;4.68;;;;;;;21.53;31.41;102301.09;5034560;28;20515;-68
2021/09/05 06:27:41;;;;;;;9.55;4.57;;;;;;;21.32;31.86;102295.28;5032690;28;20391;-69
2021/09/05 06:30:07;;;;;;;5.47;3.80;;;;;;;21.86;30.18;102305.16;5035247;28;20037;-68
2021/09/05 06:32:33;;;;;;;9.32;4.57;;;;;;;21.93;30.65;102300.28;5038209;28;20457;-69
2021/09/05 06:34:58;;;;;;;12.95;4.45;;;;;;;22.22;30.06;102302.84;5015329;28;20149;-69
2021/09/05 06:37:24;;;;;;;8.13;4.93;;;;;;;21.92;30.63;102312.72;5031644;28;20116;-69
2021/09/05 06:39:50;;;;;;;8.25;4.35;;;;;;;22.33;30.58;102300.28;5030531;28;20059;-68
2021/09/05 06:42:16;;;;;;;6.75;4.00;;;;;;;22.51;28.98;102315.00;5022014;28;20064;-69
2021/09/05 06:44:41;;;;;;;12.05;5.43;;;;;;;21.94;31.08;102310.81;5032251;28;20064;-68
2021/09/05 06:47:07;;;;;;;7.95;3.97;;;;;;;22.33;29.91;102305.63;5030559;28;20040;-69
2021/09/05 06:49:33;;;;;;;10.07;5.20;;;;;;;22.30;29.97;102308.50;5027628;28;20040;-69
2021/09/05 06:51:58;;;;;;;6.32;3.60;;;;;;;22.77;30.25;102307.91;5030824;28;20076;-68
2021/09/05 06:54:24;;;;;;;9.60;4.78;;;;;;;22.48;29.51;102317.91;5034425;28;20041;-69
2021/09/05 06:56:49;;;;;;;9.15;4.13;;;;;;;22.33;29.50;102326.94;5039686;28;20086;-69
2021/09/05 06:59:15;;;;;;;8.75;3.63;;;;;;;23.06;29.06;102322.84;5034464;28;20021;-69
2021/09/05 07:01:41;;;;;;;8.00;3.70;;;;;;;23.63;28.63;102319.59;5032646;28;20056;-68
2021/09/05 07:04:07;;;;;;;7.97;4.10;;;;;;;22.03;31.01;102322.69;5031048;28;20927;-70
2021/09/05 07:06:32;;;;;;;7.93;3.65;;;;;;;23.01;28.46;102323.16;5029901;28;20459;-69
2021/09/05 07:08:58;;;;;;;7.88;3.38;;;;;;;23.88;28.23;102320.50;5029119;28;20414;-69
2021/09/05 07:11:23;;;;;;;7.88;4.03;;;;;;;24.95;26.28;102314.97;5031060;28;20029;-69
2021/09/05 07:13:49;;;;;;;8.57;4.45;;;;;;;24.92;25.65;102312.50;5031866;28;20055;-70
2021/09/05 07:16:14;;;;;;;8.27;3.60;;;;;;;24.76;26.50;102315.56;5033370;28;20029;-70
2021/09/05 07:18:41;;;;;;;5.57;3.47;;;;;;;23.24;28.53;102316.19;5032842;28;20697;-69
2021/09/05 07:21:07;;;;;;;5.95;4.15;;;;;;;23.93;28.69;102321.88;5040114;28;20051;-70
2021/09/05 07:23:33;;;;;;;6.82;3.22;;;;;;;24.67;26.14;102318.09;5038427;28;20049;-69
2021/09/05 07:26:01;;;;;;;6.00;3.60;;;;;;;25.53;26.58;102319.31;5033846;28;20041;-70
2021/09/05 07:28:27;;;;;;;6.75;3.38;;;;;;;25.25;25.84;102327.72;5020782;28;20045;-70
2021/09/05 07:30:52;;;;;;;9.48;3.75;;;;;;;24.39;27.67;102329.09;5029262;28;20025;-69
2021/09/05 07:33:18;;;;;;;4.68;2.90;;;;;;;24.12;27.70;102336.50;5032419;28;20120;-69
2021/09/05 07:35:43;;;;;;;8.48;3.67;;;;;;;23.19;29.01;102332.53;5034232;28;20037;-68
2021/09/05 07:38:09;;;;;;;7.10;3.60;;;;;;;22.61;30.16;102333.06;5031633;28;20041;-69
2021/09/05 07:40:34;;;;;;;6.13;3.42;;;;;;;23.62;28.58;102334.78;5033882;28;20029;-68
2021/09/05 07:43:00;;;;;;;5.15;3.42;;;;;;;24.26;27.25;102338.13;5035196;28;20043;-69
2021/09/05 07:45:25;;;;;;;5.78;3.70;;;;;;;25.37;26.29;102335.75;5035425;28;20041;-70
2021/09/05 07:47:51;;;;;;;6.43;2.95;;;;;;;26.36;24.89;102339.22;5034922;28;20040;-70
2021/09/05 07:50:16;;;;;;;5.82;3.10;;;;;;;27.15;24.02;102339.56;5031279;28;20486;-70
2021/09/05 07:52:42;;;;;;;5.72;3.13;;;;;;;27.31;23.44;102336.34;5033086;28;20043;-69
2021/09/05 07:55:08;;;;;;;8.30;2.42;;;;;;;26.49;25.21;102345.22;5033854;28;20120;-67
2021/09/05 07:57:33;;;;;;;7.43;3.38;;;;;;;25.81;25.42;102340.16;5040948;28;20482;-70
2021/09/05 07:59:59;;;;;;;9.13;3.72;;;;;;;25.38;26.78;102342.81;5037819;28;20068;-68
2021/09/05 08:02:24;;;;;;;4.68;2.83;;;;;;;25.94;26.75;102349.88;5036974;28;20033;-69
2021/09/05 08:04:50;;;;;;;8.88;2.58;;;;;;;26.55;24.36;102339.34;5035920;28;20063;-69
2021/09/05 08:07:15;;;;;;;7.15;2.42;;;;;;;27.71;23.09;102336.31;5039954;28;20082;-69
2021/09/05 08:09:41;;;;;;;5.13;2.92;;;;;;;28.32;21.47;102340.59;5036533;28;20029;-70
2021/09/05 08:12:06;;;;;;;4.65;2.10;;;;;;;28.44;22.22;102346.63;5044141;28;20048;-69
2021/09/05 08:14:33;;;;;;;4.57;2.00;;;;;;;28.17;22.59;102344.69;5036008;28;20733;-68
2021/09/05 08:16:58;;;;;;;5.15;2.92;;;;;;;28.11;22.40;102345.22;5033186;28;20033;-69
2021/09/05 08:19:24;;;;;;;5.20;3.28;;;;;;;28.78;22.24;102353.38;5031125;28;20083;-69
2021/09/05 08:21:49;;;;;;;4.68;2.47;;;;;;;28.62;21.32;102349.44;5033677;28;20037;-68
2021/09/05 08:24:15;;;;;;;7.45;2.92;;;;;;;29.23;20.89;102349.94;5035374;28;20037;-67
2021/09/05 08:26:40;;;;;;;7.90;2.58;;;;;;;29.13;20.73;102353.53;5033395;28;20403;-70
2021/09/05 08:29:08;;;;;;;7.03;1.88;;;;;;;28.24;21.99;102351.19;5035819;28;20129;-68
2021/09/05 08:31:33;;;;;;;4.32;2.33;;;;;;;28.34;22.01;102360.09;5032743;28;20080;-69
2021/09/05 08:33:59;;;;;;;3.42;2.03;;;;;;;27.82;22.07;102356.81;5035261;28;20043;-68
2021/09/05 08:36:24;;;;;;;5.45;2.47;;;;;;;26.85;23.29;102360.03;5036046;28;20515;-68
2021/09/05 08:38:50;;;;;;;7.40;3.30;;;;;;;26.15;24.06;102366.84;5034627;28;20041;-69
2021/09/05 08:41:16;;;;;;;4.47;1.92;;;;;;;25.08;25.39;102362.16;5031029;28;20040;-68
2021/09/05 08:43:44;;;;;;;3.38;1.83;;;;;;;24.83;25.85;102364.91;5032405;28;20072;-68
2021/09/05 08:46:10;;;;;;;5.20;2.65;;;;;;;25.03;26.79;102376.75;5032292;28;20175;-68
2021/09/05 08:48:36;;;;;;;7.18;2.90;;;;;;;24.86;26.19;102361.13;5030298;28;20116;-69
2021/09/05 08:51:01;;;;;;;3.88;1.55;;;;;;;24.74;26.10;102378.13;5032270;28;20663;-69
2021/09/05 08:53:27;;;;;;;5.05;1.67;;;;;;;24.86;26.41;102369.16;5032889;28;20032;-69
2021/09/05 08:55:52;;;;;;;9.23;1.42;;;;;;;24.37;26.43;102372.91;5030896;28;20045;-68
2021/09/05 08:58:18;;;;;;;3.97;1.58;;;;;;;23.33;27.54;102381.41;5033358;28;20033;-68
2021/09/05 09:00:46;;;;;;;3.25;2.13;;;;;;;22.35;28.80;102378.28;5034638;28;20037;-69
2021/09/05 09:03:23;;;;;;;6.93;3.78;;;;;;;21.61;30.85;102376.88;5033997;28;20041;-69
2021/09/05 09:05:53;;;;;;;6.15;1.83;;;;;;;22.24;30.14;102378.16;5031907;28;20167;-69
2021/09/05 09:08:21;;;;;;;6.07;2.22;;;;;;;21.59;30.08;102384.09;5040732;28;20029;-69
2021/09/05 09:10:48;;;;;;;3.78;1.95;;;;;;;21.10;31.07;102380.00;5032493;28;20029;-69
2021/09/05 09:13:34;;;;;;;4.28;1.58;;;;;;;21.29;31.07;102380.59;5036636;28;20056;-69
2021/09/05 09:16:08;;;;;;;3.53;2.15;;;;;;;21.80;31.58;102376.56;5039168;28;20041;-69
2021/09/05 09:18:35;;;;;;;6.93;1.48;;;;;;;22.13;31.35;102379.69;5025181;28;20037;-69
2021/09/05 09:21:04;;;;;;;4.10;1.52;;;;;;;22.04;29.50;102377.63;5028310;28;20175;-69
2021/09/05 09:23:35;;;;;;;3.05;1.92;;;;;;;22.20;29.51;102372.16;5035929;28;20535;-68
2021/09/05 09:26:07;;;;;;;;;;;;;;;21.96;30.79;102377.28;5031885;28;20067;-69
2021/09/05 09:28:44;;;;;;;3.60;1.52;;;;;;;21.56;29.70;102375.38;5018833;28;19917;-68
2021/09/05 09:31:14;;;;;;;3.38;1.63;;;;;;;21.55;31.15;102375.47;5029447;28;20026;-69
2021/09/05 09:33:43;;;;;;;3.55;1.67;;;;;;;21.56;31.72;102369.19;5030351;28;20037;-69
2021/09/05 09:36:11;;;;;;;4.57;1.88;;;;;;;21.95;29.98;102370.22;5016187;28;20040;-69
2021/09/05 09:38:37;;;;;;;5.45;1.73;;;;;;;22.11;29.57;102375.44;5016973;28;20121;-69
2021/09/05 09:41:14;;;;;;;4.20;1.73;;;;;;;22.45;28.54;102381.19;5029031;28;20033;-69
2021/09/05 09:44:00;;;;;;;2.67;1.35;;;;;;;22.16;28.97;102363.53;5029990;28;20033;-69
2021/09/05 09:46:28;;;;;;;4.70;1.50;;;;;;;22.43;28.18;102375.09;5030989;28;20064;-69
2021/09/05 09:49:03;;;;;;;4.00;1.02;;;;;;;22.67;28.19;102367.25;5027456;28;20033;-69
2021/09/05 09:51:30;;;;;;;3.58;1.13;;;;;;;23.56;27.53;102364.56;5028479;28;20044;-68
2021/09/05 09:53:56;;;;;;;6.15;2.17;;;;;;;23.37;27.38;102378.41;5030208;28;20087;-68
2021/09/05 09:56:22;;;;;;;4.55;1.13;;;;;;;23.43;26.74;102379.75;5029102;28;20044;-69
2021/09/05 09:58:50;;;;;;;3.78;1.10;;;;;;;23.23;26.67;102370.50;5029212;28;20426;-69
2021/09/05 10:01:20;;;;;;;3.85;1.33;;;;;;;22.94;27.29;102373.41;5031673;28;20036;-68
2021/09/05 10:03:52;;;;;;;3.10;1.63;;;;;;;22.50;27.23;102377.25;5045062;28;20044;-69
2021/09/05 10:06:19;;;;;;;5.85;1.77;;;;;;;22.01;29.00;102375.16;5031674;28;20494;-69
2021/09/05 10:08:45;;;;;;;4.03;1.35;;;;;;;22.36;29.80;102370.19;5026334;28;20033;-68
2021/09/05 10:11:14;;;;;;;3.30;1.35;;;;;;;22.72;26.70;102370.50;5030178;28;20041;-68
2021/09/05 10:13:43;;;;;;;3.53;1.70;;;;;;;22.88;27.23;102372.97;5029205;28;20116;-68
2021/09/05 10:16:10;;;;;;;5.45;1.67;;;;;;;22.82;27.80;102371.56;5029577;28;20040;-68
2021/09/05 10:18:45;;;;;;;8.55;1.40;;;;;;;23.11;26.95;102371.34;5035760;28;20025;-69
2021/09/05 10:21:19;;;;;;;3.25;1.50;;;;;;;23.22;27.49;102368.78;5029959;28;20084;-68
2021/09/05 10:23:52;;;;;;;3.95;1.30;;;;;;;23.61;27.22;102375.78;5042825;28;20037;-68
2021/09/05 10:26:18;;;;;;;2.50;1.23;;;;;;;23.79;26.72;102367.41;5025977;28;20040;-68
2021/09/05 10:28:49;;;;;;;4.38;1.30;;;;;;;23.78;26.35;102377.22;5027202;28;20025;-68
2021/09/05 10:31:24;;;;;;;2.97;1.15;;;;;;;23.94;26.22;102368.09;5026754;28;20921;-68
2021/09/05 10:33:49;;;;;;;3.15;1.40;;;;;;;23.71;25.63;102367.94;5029557;28;20048;-69
2021/09/05 10:36:19;;;;;;;4.30;0.90;;;;;;;23.46;25.92;102368.88;5030186;28;20064;-69
2021/09/05 10:38:46;;;;;;;3.10;1.40;;;;;;;23.42;27.46;102372.72;5034755;28;20044;-68
2021/09/05 10:41:24;;;;;;;2.75;1.10;;;;;;;23.29;26.83;102364.75;5028368;28;20436;-68
2021/09/05 10:43:59;;;;;;;3.00;1.27;;;;;;;23.67;25.64;102366.47;5024669;28;20041;-69
2021/09/05 10:46:55;;;;;;;4.45;1.42;;;;;;;23.87;25.74;102358.84;5026286;28;20486;-69
2021/09/05 10:49:38;;;;;;;2.80;1.10;;;;;;;23.53;25.95;102361.28;5008039;28;20048;-68
2021/09/05 10:52:04;;;;;;;5.90;1.30;;;;;;;23.51;26.39;102355.22;5028741;28;20559;-69
2021/09/05 10:54:30;;;;;;;3.13;1.00;;;;;;;23.49;26.20;102357.13;5027787;28;20032;-69
2021/09/05 10:56:57;;;;;;;2.95;1.17;;;;;;;23.60;24.94;102359.88;5013619;28;20200;-69
2021/09/05 10:59:24;;;;;;;2.70;1.23;;;;;;;23.67;25.65;102349.59;5027950;28;20064;-68
2021/09/05 11:01:49;;;;;;;2.53;1.30;;;;;;;23.49;26.02;102351.81;5035915;28;20037;-69
2021/09/05 11:04:15;;;;;;;4.07;0.98;;;;;;;23.54;27.75;102347.84;5028118;28;20043;-69
2021/09/05 11:06:56;;;;;;;2.63;1.17;;;;;;;23.78;25.75;102349.66;5029395;28;20072;-68
2021/09/05 11:09:24;;;;;;;2.10;0.77;;;;;;;23.84;26.08;102343.88;5024745;28;20062;-68
2021/09/05 11:12:18;;;;;;;2.05;1.17;;;;;;;23.36;26.80;102347.31;5029120;28;20033;-69
2021/09/05 11:14:47;;;;;;;5.07;1.05;;;;;;;22.88;28.27;102355.16;5034282;28;20041;-69
2021/09/05 11:17:19;;;;;;;2.33;0.75;;;;;;;22.80;26.49;102347.69;5029476;28;20095;-68
2021/09/05 11:19:52;;;;;;;6.07;1.00;;;;;;;22.79;26.46;102345.97;5025785;28;20053;-68
2021/09/05 11:22:29;;;;;;;3.67;1.50;;;;;;;22.89;27.90;102348.84;5042924;28;20156;-68
2021/09/05 11:25:21;;;;;;;2.00;0.70;;;;;;;23.52;26.94;102346.22;5036901;28;20542;-68
2021/09/05 11:28:08;;;;;;;3.15;1.02;;;;;;;23.70;27.03;102352.91;5028852;28;20088;-68
2021/09/05 11:30:35;;;;;;;3.50;1.33;;;;;;;23.94;26.53;102352.09;5028751;28;20064;-67
2021/09/05 11:33:09;;;;;;;4.53;1.00;;;;;;;23.99;26.08;102357.94;5027279;28;20044;-69
2021/09/05 11:35:44;;;;;;;1.73;0.80;;;;;;;24.09;25.94;102353.63;5020150;28;20043;-69
2021/09/05 11:38:15;;;;;;;2.28;0.93;;;;;;;24.41;26.83;102347.66;5029535;28;20056;-69
2021/09/05 11:40:48;;;;;;;6.32;1.00;;;;;;;24.17;26.96;102350.38;5019002;28;20240;-70
2021/09/05 11:43:27;;;;;;;4.50;1.38;;;;;;;24.01;25.91;102348.88;5031004;28;20141;-70